Terminal Aerodrome Forecast
Issued by NWS Billings, MT

Home | Current Version | Previous Version | Graphics & Text | Print | Product List | Glossary On
Versions: 1 2 3 4 5 6 7 8 9 10 11 12 13 14 15 16 17 18 19 20 21 22 23 24 25 26 27 28
175
FTUS45 KBYZ 290657 AAA
TAFMLS
TAF AMD
KMLS 290657Z 2907/3006 14010G16KT P6SM SKC WS015/15040KT
     FM291500 15012KT P6SM FEW100 SCT250=

USA.gov is the U.S. government's official web portal to all federal, state and local government web resources and services.